ENVA

Trondheim , Værnes Airport

Trondheim, Norway
METAR ENVA 160950Z VRB02KT 9999 FEW053 BKN080 09/04 Q1023 NOSIG RMK WIND 670FT 29005KT
Observed Flight Rules
Nov-16 @ 09:50 UTC (37 minutes ago) Visual Flight Rules
Wind Visibility Clouds
Variable at 2 knots 10,000+ meters
  • Few at 5,300' AGL
  • Broken at 8,000' AGL
Temperatures Readings
Current 9°C / 48°F
Dewpoint 4°C / 39°F
Humidity 71%
Altimeter 30.21" Hg
Pressure 1023 hPa
Elevation 17
METAR ENVA 160950Z VRB02KT 9999 FEW053 BKN080 09/04 Q1023 NOSIG RMK WIND 670FT 29005KT
Observed Flight Rules
Nov-16 @ 09:50 UTC
(37 minutes ago)
VFR
Wind Visibility
Variable at 2 knots 10,000+ meters
Clouds
  • Few at 5,300' AGL
  • Broken at 8,000' AGL
Temperature Dewpoint
9°C / 48°F 4°C / 39°F
Humidity Altimeter Pressure
71% 30.21" Hg 1023 hPa